Reklama

Seznam meteostanic a jejich METAR

Vyhledat místa podle abecedy:
A B C D E F G H I J K L M N O P Q R S T U V W X Y Z

Filtrovat:

ID stanice:
a/nebo
Název místa (fulltext):
 
Místo (ID)Naposledy načteno 
Doksany - Litoměřice (Doksany) 04.06.2020 08:00 UTC Zobrazit data
Místo: Doksany - Litoměřice
Teplota: 16 °C (pocitová: 14.6 °C)
Vítr: 2 m/s z(e) 0°
Počasí: skoro zataženo
Dohlednost: 40 km
Zákl. oblačnosti: 3/8 3900 m;5/8 6000 m
Vlhkost: 63%
Dukovany (Dukovany) 04.06.2020 08:00 UTC Zobrazit data
Místo: Dukovany
Teplota: 18 °C (pocitová: 16.7 °C)
Vítr: 3 m/s z(e) 110°
Počasí: skoro zataženo
Dohlednost: 30 km
Zákl. oblačnosti: 7/8 9000 m
Vlhkost: 64%
Dakar (GOOY) 04.06.2020 08:00 UTC Zobrazit METAR
GOOY 040800Z 32017KT CAVOK 24/22 Q1013
Damascus (OSDI) 04.06.2020 08:00 UTC Zobrazit METAR
OSDI 040800Z 26007KT CAVOK 24/06 Q1015
Debrecen (LHDC) 04.06.2020 07:45 UTC Zobrazit METAR
LHDC 040745Z AUTO 18016KT 150V220 9999 FEW017 18/12 Q1004
Delhi (VIDP) 04.06.2020 06:00 UTC Zobrazit METAR
VIDP 040600Z 08006KT 2500 HZ SCT040 BKN100 34/20 Q1004 BECMG 3000 HZ
Dhaka (VGZR) Zatím nenačteno  
Diego Garcia (FJDG) 04.06.2020 07:55 UTC Zobrazit METAR
FJDG 040755Z 12013KT 9999 FEW020 SCT250 32/26 A2986 RMK SLP108 T03160260
Djibouti (HDAM) 04.06.2020 08:00 UTC Zobrazit METAR
HDAM 040800Z 07011KT 9999 FEW023 BKN133 34/27 Q1007
Dnipropetrovs'k (UKDD) 12.08.2013 14:00 UTC Zobrazit METAR
UKDD 121400Z CAVOK 33/13 Q1012 08090070 NOSIG
Dodoma (HTDO) 04.06.2020 08:00 UTC Zobrazit METAR
HTDO 040800Z 11010KT 9999 FEW023 24/15 Q1022 NOSIG
Doha (OTBD) 04.06.2020 08:00 UTC Zobrazit METAR
OTBD 040800Z AUTO 31012KT 280V340 CAVOK 45/11 Q1002 NOSIG
Dortmund (EDLW) 04.06.2020 07:50 UTC Zobrazit METAR
EDLW 040750Z 26003KT 220V310 3900 -DZ BR OVC007 14/13 Q0996
Dresden (EDDC) 04.06.2020 07:50 UTC Zobrazit METAR
EDDC 040750Z 16012KT CAVOK 20/11 Q0996 NOSIG
Dublin (EIDW) 04.06.2020 08:00 UTC Zobrazit METAR
EIDW 040800Z 28011KT 9999 SCT013 BKN020 10/07 Q1008 NOSIG
Dubrovnik (LDDU) 04.06.2020 08:00 UTC Zobrazit METAR
LDDU 040800Z 14020KT 110V170 CAVOK 21/06 Q1010 NOSIG
Dushanbe (UTDD) Zatím nenačteno  
Dusseldorf (EDDL) 04.06.2020 07:50 UTC Zobrazit METAR
EDDL 040750Z 29007KT 9999 FEW011 OVC013 15/12 Q0996 BECMG BKN020
Dzaoudzi (FMCZ) 04.06.2020 08:00 UTC Zobrazit METAR
FMCZ 040800Z AUTO 16014KT 9999 BKN024 BKN029 30/22 Q1017 NOSIG
Reklama

Lunární kalendář

  • zítraFáze měsíce uplnek
  • 13.06.Fáze měsíce posl_ctvrt
  • 21.06.Fáze měsíce nov
  • 28.06.Fáze měsíce prv_ctvrt



Reklama
Meteodomečky

Počasí na Váš email

Emaily jsou bez reklamy a bez spamu



Odhlásit newsletter

Reklama


Další české internetové stránky (nejen) o počasí najdete v katalogu TOPlist - weby o počasí nebo vyhledejte na internetu, co jste tu na 🌞 Slunečnu ⛅ zatím nenašli:

Reklama